createdAt,value
2019-04-16T00:01:23.955Z,38.80
2019-04-16T00:06:42.742Z,38.90
2019-04-16T00:12:02.274Z,38.80
2019-04-16T00:17:06.557Z,38.90
2019-04-16T00:22:35.516Z,39.00
2019-04-16T00:27:40.654Z,39.00
2019-04-16T00:32:45.419Z,39.10
2019-04-16T00:37:51.646Z,39.20
2019-04-16T00:42:56.385Z,39.00
2019-04-16T00:48:01.367Z,38.90
2019-04-16T00:53:08.339Z,39.00
2019-04-16T00:58:12.466Z,39.20
2019-04-16T01:03:17.166Z,39.10
2019-04-16T01:08:21.613Z,39.00
2019-04-16T01:13:26.134Z,39.20
2019-04-16T01:18:30.770Z,39.70
2019-04-16T01:23:36.819Z,39.30
2019-04-16T01:28:47.023Z,39.30
2019-04-16T01:34:18.013Z,39.50
2019-04-16T01:39:25.133Z,39.50
2019-04-16T01:44:29.764Z,39.40
2019-04-16T01:49:34.162Z,39.50
2019-04-16T01:54:39.115Z,39.40
2019-04-16T01:59:48.836Z,39.40
2019-04-16T02:04:53.251Z,39.50
2019-04-16T02:09:57.831Z,40.10
2019-04-16T02:15:02.212Z,39.60
2019-04-16T02:20:07.593Z,39.70
2019-04-16T02:25:12.180Z,39.60
2019-04-16T02:30:16.870Z,39.40
2019-04-16T02:35:21.144Z,39.60
2019-04-16T02:40:25.584Z,39.60
2019-04-16T02:45:30.237Z,39.60
2019-04-16T02:50:44.387Z,39.30
2019-04-16T02:55:57.659Z,39.20
2019-04-16T03:01:20.848Z,39.30
2019-04-16T03:06:26.238Z,39.20
2019-04-16T03:11:31.344Z,39.40
2019-04-16T03:16:42.713Z,39.30
2019-04-16T03:21:47.473Z,39.20
2019-04-16T03:26:52.307Z,39.30
2019-04-16T03:31:59.211Z,39.40
2019-04-16T03:37:03.771Z,39.30
2019-04-16T03:42:08.456Z,39.40
2019-04-16T03:47:15.718Z,39.50
2019-04-16T03:52:19.605Z,39.50
2019-04-16T03:57:24.842Z,39.50
2019-04-16T04:02:29.830Z,39.60
2019-04-16T04:07:35.207Z,39.70
2019-04-16T04:12:42.597Z,39.70
2019-04-16T04:17:49.155Z,39.60
2019-04-16T04:22:56.779Z,39.70
2019-04-16T04:28:00.806Z,39.90
2019-04-16T04:33:08.935Z,40.00
2019-04-16T04:38:12.566Z,40.20
2019-04-16T04:43:17.465Z,40.90
2019-04-16T04:48:24.154Z,41.20
2019-04-16T04:53:28.732Z,41.70
2019-04-16T04:58:34.030Z,42.10
2019-04-16T05:04:18.948Z,42.60
2019-04-16T05:09:21.501Z,42.80
2019-04-16T05:14:26.359Z,42.90
2019-04-16T05:19:31.203Z,43.10
2019-04-16T05:24:37.566Z,43.30
2019-04-16T05:29:42.703Z,43.50
2019-04-16T05:34:47.291Z,43.70
2019-04-16T05:39:52.846Z,43.70
2019-04-16T05:44:57.662Z,43.90
2019-04-16T05:50:02.783Z,44.10
2019-04-16T05:55:17.672Z,43.80
2019-04-16T06:00:46.319Z,44.00
2019-04-16T06:05:51.532Z,44.00
2019-04-16T06:10:57.585Z,44.00
2019-04-16T06:16:25.370Z,44.00
2019-04-16T06:22:03.318Z,44.10
2019-04-16T06:27:29.940Z,44.00
2019-04-16T06:32:48.975Z,43.90
2019-04-16T06:38:01.659Z,44.30
2019-04-16T06:43:12.453Z,43.80
2019-04-16T06:48:23.117Z,42.90
2019-04-16T06:53:49.849Z,43.60
2019-04-16T06:59:01.355Z,44.20
2019-04-16T07:04:29.498Z,43.20
2019-04-16T07:09:57.093Z,42.80
2019-04-16T07:15:03.107Z,43.00
2019-04-16T07:20:13.026Z,42.50
2019-04-16T07:25:16.257Z,42.80
2019-04-16T07:30:31.086Z,42.20
2019-04-16T07:36:01.398Z,42.00
2019-04-16T07:41:24.474Z,42.00
2019-04-16T07:46:47.905Z,41.90
2019-04-16T07:52:12.261Z,40.60
2019-04-16T07:57:17.335Z,40.90
2019-04-16T08:02:22.937Z,40.50
2019-04-16T08:07:28.340Z,40.70
2019-04-16T08:12:33.506Z,40.60
2019-04-16T08:17:38.867Z,40.30
2019-04-16T08:22:47.693Z,41.00
2019-04-16T08:27:54.030Z,40.90
2019-04-16T08:32:58.409Z,41.20
2019-04-16T08:38:03.449Z,41.20
2019-04-16T08:43:09.255Z,42.10
2019-04-16T08:48:18.650Z,41.50
2019-04-16T08:53:21.991Z,41.90
2019-04-16T08:58:26.831Z,42.20
2019-04-16T09:03:32.521Z,42.30
2019-04-16T09:08:46.678Z,42.40
2019-04-16T09:13:56.830Z,41.60
2019-04-16T09:19:06.635Z,41.20
2019-04-16T09:24:22.020Z,42.20
2019-04-16T09:29:46.701Z,40.80
2019-04-16T09:35:29.387Z,40.90
2019-04-16T09:40:59.126Z,40.60
2019-04-16T09:46:10.492Z,39.20
2019-04-16T09:51:12.529Z,39.80
2019-04-16T09:56:29.155Z,41.00
2019-04-16T10:01:42.565Z,40.50
2019-04-16T10:06:47.916Z,39.50
2019-04-16T10:11:52.898Z,40.50
2019-04-16T10:16:58.917Z,39.40
2019-04-16T10:22:04.216Z,39.90
2019-04-16T10:27:12.228Z,38.30
2019-04-16T10:32:21.280Z,37.90
2019-04-16T10:37:27.463Z,39.00
2019-04-16T10:42:45.628Z,37.70
2019-04-16T10:48:12.937Z,38.10
2019-04-16T10:53:27.254Z,37.80
2019-04-16T10:58:49.977Z,36.70
2019-04-16T11:04:14.616Z,36.40
2019-04-16T11:09:20.434Z,34.70
2019-04-16T11:14:26.164Z,33.60
2019-04-16T11:19:31.301Z,34.10
2019-04-16T11:24:35.865Z,33.90
2019-04-16T11:29:42.007Z,31.60
2019-04-16T11:34:46.771Z,30.60
2019-04-16T11:39:51.953Z,31.00
2019-04-16T11:44:57.006Z,32.20
2019-04-16T11:50:01.401Z,30.70
2019-04-16T11:55:06.473Z,30.30
2019-04-16T12:00:15.255Z,31.10
2019-04-16T12:05:28.167Z,30.20
2019-04-16T12:10:50.767Z,30.00
2019-04-16T12:16:13.804Z,29.30
2019-04-16T12:21:49.897Z,28.90
2019-04-16T12:27:05.246Z,29.10
2019-04-16T12:32:26.661Z,29.20
2019-04-16T12:37:49.507Z,29.60
2019-04-16T12:43:14.737Z,28.40
2019-04-16T12:48:26.141Z,28.60
2019-04-16T12:53:53.121Z,28.60
2019-04-16T12:59:24.954Z,28.70
2019-04-16T13:04:48.809Z,28.00
2019-04-16T13:10:03.866Z,28.00
2019-04-16T13:15:30.726Z,28.10
2019-04-16T13:20:57.135Z,27.80
2019-04-16T13:26:30.266Z,26.90
2019-04-16T13:31:36.437Z,27.10
2019-04-16T13:36:43.021Z,26.80
2019-04-16T13:41:49.053Z,27.50
2019-04-16T13:46:54.617Z,26.90
2019-04-16T13:51:59.573Z,27.80
2019-04-16T13:57:09.549Z,27.60
2019-04-16T14:02:29.706Z,26.60
2019-04-16T14:07:34.399Z,25.70
2019-04-16T14:12:42.745Z,26.00
2019-04-16T14:17:52.962Z,26.90
2019-04-16T14:22:54.281Z,26.40
2019-04-16T14:28:01.964Z,26.80
2019-04-16T14:33:07.359Z,27.20
2019-04-16T14:38:14.095Z,26.50
2019-04-16T14:43:22.881Z,27.40
2019-04-16T14:48:28.401Z,27.60
2019-04-16T14:53:51.278Z,26.90
2019-04-16T14:59:09.457Z,27.70
2019-04-16T15:04:32.134Z,27.40
2019-04-16T15:10:04.503Z,27.30
2019-04-16T15:15:24.789Z,27.00
2019-04-16T15:20:51.423Z,26.70
2019-04-16T15:26:08.611Z,26.80
2019-04-16T15:36:35.939Z,27.90
2019-04-16T15:41:50.797Z,27.30
2019-04-16T15:47:13.975Z,27.90
2019-04-16T15:52:35.472Z,27.90
2019-04-16T15:58:18.622Z,27.60
2019-04-16T16:03:39.230Z,28.10
2019-04-16T16:08:57.454Z,27.70
2019-04-16T16:14:02.190Z,27.30
2019-04-16T16:19:10.783Z,27.70
2019-04-16T16:24:14.493Z,27.70
2019-04-16T16:29:19.617Z,27.90
2019-04-16T16:34:24.457Z,28.00
2019-04-16T16:39:29.902Z,28.30
2019-04-16T16:44:35.026Z,27.90
2019-04-16T16:49:40.961Z,27.80
2019-04-16T16:54:47.286Z,27.50
2019-04-16T17:00:12.078Z,28.70
2019-04-16T17:05:26.312Z,29.00
2019-04-16T19:01:29.696Z,32.80
2019-04-16T19:06:36.468Z,33.30
2019-04-16T19:11:44.086Z,32.80
2019-04-16T19:16:49.364Z,32.90
2019-04-16T19:21:55.409Z,32.60
2019-04-16T19:27:01.543Z,32.60
2019-04-16T19:32:06.868Z,32.30
2019-04-16T19:37:12.159Z,32.20
2019-04-16T19:42:17.788Z,32.50
2019-04-16T19:47:23.412Z,32.30
2019-04-16T19:52:29.944Z,31.80
2019-04-16T19:57:35.108Z,31.90
2019-04-16T20:02:41.594Z,32.00
2019-04-16T20:07:46.671Z,31.80
2019-04-16T20:12:52.144Z,32.30
2019-04-16T20:18:00.717Z,33.10
2019-04-16T20:23:06.400Z,33.60
2019-04-16T20:28:15.307Z,33.80
2019-04-16T20:33:19.236Z,33.80
2019-04-16T20:38:29.357Z,33.20
2019-04-16T20:43:34.295Z,34.60
2019-04-16T20:48:41.856Z,35.10
2019-04-16T20:53:47.409Z,35.20
2019-04-16T20:58:52.601Z,35.50
2019-04-16T21:04:05.022Z,35.90
2019-04-16T21:09:05.051Z,36.30
2019-04-16T21:14:10.114Z,36.80
2019-04-16T21:19:22.982Z,37.20
2019-04-16T21:24:21.144Z,37.00
2019-04-16T21:29:34.387Z,37.30
2019-04-16T21:34:42.719Z,38.00
2019-04-16T21:39:56.023Z,38.40
2019-04-16T21:45:01.498Z,38.80
2019-04-16T21:50:08.166Z,39.10
2019-04-16T21:55:13.148Z,39.30
2019-04-16T22:00:44.278Z,39.80
2019-04-16T22:05:49.212Z,39.60
2019-04-16T22:10:54.375Z,39.70
2019-04-16T22:15:59.805Z,40.30
2019-04-16T22:21:09.773Z,40.50
2019-04-16T22:26:11.093Z,40.90
2019-04-16T22:31:16.722Z,41.10
2019-04-16T22:36:21.792Z,41.50
2019-04-16T22:41:31.683Z,42.00
2019-04-16T22:46:49.791Z,42.00
2019-04-16T22:51:54.722Z,42.10
2019-04-16T22:57:03.202Z,42.50
2019-04-16T23:02:13.814Z,42.80
2019-04-16T23:07:18.648Z,43.00
2019-04-16T23:12:27.223Z,43.70
2019-04-16T23:17:29.523Z,44.00
2019-04-16T23:22:33.905Z,44.00
2019-04-16T23:27:38.265Z,44.50
2019-04-16T23:32:42.937Z,44.60
2019-04-16T23:37:47.804Z,44.90
2019-04-16T23:43:11.505Z,45.20
2019-04-16T23:48:41.282Z,45.10
2019-04-16T23:53:54.451Z,45.10
2019-04-16T23:59:09.802Z,45.20
